Lulu Pass Weather Station

This weather station provides temperature, relative humidity (RH), wind speed, gust or max wind speed, and wind direction at 10014ft near Lulu Pass at the head of Fisher Creek. This data can be used with temperature and precipitation data from the Fisher Creek SNOTEL site.

This weather station was purchased by the Friends of the Avalanche Center.

If the data has not been updated recently you can view it directly on datagarrison.com

Elevation
10014ft
Jump to table bottom
Date Time Temperature
deg F
RH, % Wind Speed Wind Gust Wind Direction
04/02/20 07:00 2.8 90 3 7 S - 161
04/02/20 06:00 -2.6 89 7 10 SE - 135
04/02/20 05:00 -2.1 90 5 9 SE - 115
04/02/20 04:00 -0.1 90 3 7 E - 111
04/02/20 03:00 -0.2 90 5 10 SE - 131
04/02/20 02:00 -0.7 90 5 10 SE - 125
04/02/20 01:00 0.2 90 4 10 SE - 128
04/02/20 00:00 0.9 91 5 16 E - 94
04/01/20 23:00 1.2 91 4 10 E - 104
04/01/20 22:00 2.1 91 5 12 E - 102
04/01/20 21:00 2.6 91 5 10 SE - 124
04/01/20 20:00 3.4 92 6 12 E - 83
04/01/20 19:00 3.7 92 7 15 NE - 66
04/01/20 18:00 3.6 92 7 12 NE - 37
04/01/20 17:00 4.5 92 8 13 NE - 45
04/01/20 16:00 3.7 92 7 12 NW - 319
04/01/20 15:00 4.7 92 7 11 NW - 314
04/01/20 14:00 9.3 93 6 13 NW - 312
04/01/20 13:00 13.0 94 7 13 N - 338
04/01/20 12:00 14.0 93 6 10 NW - 334
04/01/20 11:00 12.6 93 7 11 N - 348
04/01/20 10:00 10.6 92 3 8 NW - 323
04/01/20 09:00 10.2 92 6 17 SW - 225
04/01/20 08:00 11.4 93 5 9 NW - 319
04/01/20 07:00 9.1 93 5 14 W - 279
04/01/20 06:00 9.7 94 5 12 W - 277
04/01/20 05:00 9.8 94 7 16 SW - 234
04/01/20 04:00 9.9 94 7 16 SW - 230
04/01/20 03:00 10.7 94 10 23 SW - 225
04/01/20 02:00 11.4 94 7 16 W - 261
04/01/20 01:00 12.2 95 11 36 W - 279
04/01/20 00:00 12.7 95 15 23 NW - 310
03/31/20 23:00 13.4 95 15 25 NW - 310
03/31/20 22:00 14.9 96 12 20 NW - 313
03/31/20 21:00 15.2 96 17 32 NW - 314
03/31/20 20:00 15.9 96 23 37 NW - 326
03/31/20 19:00 17.1 97 22 38 NW - 316
03/31/20 18:00 21.3 97 20 44 SW - 219
03/31/20 17:00 21.1 97 17 50 SW - 230
03/31/20 16:00 21.6 96 20 65 SW - 222
03/31/20 15:00 21.1 96 21 48 SW - 216
03/31/20 14:00 20.2 96 8 37 W - 260
03/31/20 13:00 18.9 94 10 24 W - 284
03/31/20 12:00 23.0 94 10 25 W - 279
03/31/20 11:00 20.5 95 10 20 W - 270
03/31/20 10:00 18.4 96 19 37 NW - 314
03/31/20 09:00 18.7 96 22 41 W - 281
03/31/20 08:00 21.8 97 16 38 SW - 233
03/31/20 07:00 21.1 97 14 41 SW - 240
03/31/20 06:00 20.7 97 17 43 SW - 241